AirNav   Air Wisconsin pilot careers
 
 530 users online  

1B1 Columbia County Airport
Hudson, New York, USA

GOING TO HUDSON?


FAA INFORMATION EFFECTIVE 19 JULY 2018

Location

FAA Identifier: 1B1
Lat/Long: 42-17-28.7000N / 073-42-37.2000W
42-17.478333N / 073-42.620000W
42.2913056 / -73.7103333
(estimated)
Elevation: 198.1 ft. / 60.4 m (surveyed)
Variation: 13W (1965)
From city: 4 miles NE of HUDSON, NY
Time zone: UTC -4 (UTC -5 during Standard Time)
Zip code: 12075

Airport Operations

Airport use: Open to the public
Control tower: no
ARTCC: BOSTON CENTER
FSS: BURLINGTON FLIGHT SERVICE STATION
NOTAMs facility: BTV (NOTAM-D service available)
Attendance: 0700-1800
Wind indicator: yes
Segmented circle: yes
Lights: ACTVT MIRL RY 03/21 & PAPI RY 03 - CTAF.
Beacon: white-green (lighted land airport)
Operates sunset to sunrise.
International operations: customs landing rights airport

Airport Communications

CTAF/UNICOM: 123.05
WX AWOS-3: 133.525 (518-828-2577)
ALBANY APPROACH: 132.825
ALBANY DEPARTURE: 132.825

Nearby radio navigation aids

VOR radial/distance  VOR name  Freq  Var
ALBr184/27.7ALBANY VORTAC115.3013W
PWLr003/31.7PAWLING VOR/DME114.3012W
CTRr283/33.8CHESTER VOR/DME115.1013W
IGNr020/37.9KINGSTON VOR/DME117.6012W

 
NDB name  Hdg/Dist  Freq  Var  ID
PHILMONT027/2.427213WPFH .--. ..-. ....
GREAT BARRINGTON310/15.139514WGBR --. -... .-.
HUNTER178/35.235614WHEU .... . ..-

Airport Services

Fuel available: 100 100LL JET-A1+
Parking: hangars and tiedowns
Airframe service: MAJOR
Powerplant service: MINOR
Bottled oxygen: HIGH
Bulk oxygen: HIGH

Runway Information

Runway 3/21

Dimensions: 5350 x 100 ft. / 1631 x 30 m
Surface: asphalt/grooved, in good condition
Weight bearing capacity: 
PCN 29 /F/C/X/T
Single wheel: 69.0
Double wheel: 111.0
Double tandem: 358.0
Runway edge lights: medium intensity
RUNWAY 3  RUNWAY 21
Latitude: 42-17.046325N42-17.909072N
Longitude: 073-42.738582W073-42.500060W
Elevation: 198.1 ft.194.0 ft.
Gradient: 0.2%0.2%
Traffic pattern: leftleft
Runway heading: 024 magnetic, 011 true204 magnetic, 191 true
Displaced threshold: no160 ft.
Markings: nonprecision, in good conditionnonprecision, in good condition
Visual slope indicator: 4-light PAPI on left (3.00 degrees glide path)4-light PAPI on right (3.52 degrees glide path)
Runway end identifier lights: yesyes
Touchdown point: yes, no lightsyes, no lights
Obstructions: none27 ft. tree, 411 ft. from runway, 171 ft. left of centerline, 7:1 slope to clear

Airport Ownership and Management from official FAA records

Ownership: Publicly-owned
Owner: COUNTY OF COLUMBIA
401 STATE STREET
HUDSON, NY 12534
Phone 518-828-7011
Manager: DEAN KNOX
P.O. BOX 324, 178 ROUTE 23B
HUDSON, NY 12534
Phone 518-828-7011

Airport Operational Statistics

Aircraft based on the field: 15
Single engine airplanes: 12
Multi engine airplanes: 1
Jet airplanes: 2
    
Aircraft operations: avg 53/day *
42% transient general aviation
36% local general aviation
21% air taxi
1% military
* for 12-month period ending 15 September 2016

Instrument Procedures

NOTE: All procedures below are presented as PDF files. If you need a reader for these files, you should download the free Adobe Reader.

NOT FOR NAVIGATION. Please procure official charts for flight.
FAA instrument procedures published for use from 19 July 2018 at 0901Z to 16 August 2018 at 0900Z.

 
IAPs - Instrument Approach Procedures
RNAV (GPS) RWY 03 **CHANGED**   download (245KB)
RNAV (GPS) RWY 21 **CHANGED**   download (264KB)
NDB-A **CHANGED**   download (182KB)
NOTE: Special Take-Off Minimums/Departure Procedures apply **CHANGED**   download (275KB)

Other nearby airports with instrument procedures:

KGBR - Walter J Koladza Airport (15 nm SE)
4B0 - South Albany Airport (17 nm N)
KPSF - Pittsfield Municipal Airport (20 nm NE)
20N - Kingston-Ulster Airport (22 nm SW)
KALB - Albany International Airport (28 nm N)
 
Loc | Ops | Rwys | IFR | FBO | Links
Com | Nav | Svcs | Stats | Notes


 
Area around 1B1 (Columbia County Airport)
 
Road maps at: MapQuest Bing Google
 
Aerial photo
WARNING: Photo may not be current or correct
Aerial photo of 1B1 (Columbia County Airport)
Photo by Cathy Vajtay
Photo taken 25-Aug-2013
looking southeast from 4500'.

Do you have a better or more recent aerial photo of Columbia County Airport that you would like to share? If so, please send us your photo.

 
Sectional chart

 
Airport distance calculator
Flying to Columbia County Airport? Find the distance to fly.

From to 1B1

Sunrise and sunset
Times for 20-Jul-2018
 Local
(UTC-4)
 Zulu
(UTC)
Morning civil twilight05:0409:04
Sunrise05:3709:37
Sunset20:2500:25
Evening civil twilight20:5800:58

Current date and time
Zulu (UTC)  20-Jul-2018 05:16:52
Local (UTC-4)  20-Jul-2018 01:16:52
 
METAR
KPSF 
21nm NE 
200454Z AUTO 00000KT 10SM CLR 13/11 A3015 RMK AO2 SLPNO T01280106
KALB 
28nm N 
200451Z 00000KT 10SM CLR 18/12 A3012 RMK AO2 SLP197 T01780122 402830128
KAQW 
34nm NE 
200452Z AUTO 00000KT 10SM CLR 12/11 A3016 RMK AO2 SLP212 T01170106 402560083
KSCH 
35nm N 
200145Z 00000KT 10SM CLR 22/12 A3011 RMK LAST
KPOU 
40nm S 
200453Z AUTO 00000KT 10SM CLR 16/13 A3012 RMK AO2 SLP196 T01560133 402720117
KDDH 
41nm NE 
200454Z AUTO 00000KT 10SM CLR 12/11 A3014 RMK AO2 SLP204 T01220106 402610078
TAF
KPSF 
21nm NE 
191720Z 1918/2018 30005KT P6SM FEW050 FEW250 FM192300 VRB03KT P6SM SKC FM200500 00000KT 4SM BR SCT002 FM200700 00000KT 3/4SM BR BKN002 FM201200 VRB03KT P6SM SKC AMD NOT SKED
NOTAMs
Click for the latest NOTAMs
NOTAMs are issued by the DoD/FAA and will open in a separate window not controlled by AirNav.

 

 
 

FBO, Fuel Providers, and Aircraft Ground Support

  
 Business Name 
 
 Contact 
 
 Services / Description 
 
Fuel Prices
 
Comments
  
Richmor Aviation 518-828-9461
toll-free 1-800-359-2299
[web site]
[email]
Aviation fuel, Aircraft ground handling, Oxygen service, Aircraft parking (ramp or tiedown), Hangars, GPU / Power cart, Flight training, Aircraft rental, ...

More info about Richmor Aviation
independent
100LL Jet A
FS --- $4.15 
SS $4.67 --- 
 Updated 18-Jul-2018
 
   3 read write
FS=Full service
SS=Self service
Update Fuel Prices
 

Would you like to see your business listed on this page?

 If your business provides an interesting product or service to pilots, flight crews, aircraft, or users of the Columbia County Airport, you should consider listing it here.  To start the listing process, click on the button below
 
Add a business
 

Other Pages about Columbia County Airport

Update a link
 
Copyright © AirNav, LLC. All rights reserved. Privacy Policy  Contact